Somajesi — MN93314 — position and weather

sailwx.info

Track history (hours):
 
Tides and Currents Weather Stations Pressure Air Temp Water Temp Dewpoint Dewpoint Depression Visibility Wind Speed Wind Dir Waves Ship Positions

Somajesi

Last reported at 2017-Aug-19 18:59 UTC. Time now 2017-Sep-22 10:16 UTC.
Position N 46°39' W 001°57'.
Warning: this ship's position is 33 days out of date.

Length 13 m.

Type: Sailing vessel. MMSI: 227033040.

Date/timePositionNaut miles runAvg speedWind from/ knotsBaromVisibWave heightAir tempDewpointWater temp
2017-Aug-19 18:59N 46°39' W 001°57'3 5.1
2017-Aug-19 18:29N 46°37' W 001°57'2 3.8
2017-Aug-19 17:56N 46°34' W 001°57'2 3.8
2017-Aug-19 17:30N 46°35' W 001°55'3 4.9
2017-Aug-19 17:00N 46°32' W 001°55'3 5.3
2017-Aug-19 16:30N 46°30' W 001°54'2 4.5
2017-Aug-19 16:00N 46°28' W 001°52'3 6.0
2017-Aug-19 15:30N 46°26' W 001°49'3 6.0
2017-Aug-19 15:00N 46°25' W 001°45'25 1.0
2017-Aug-18 13:55N 46°11' W 001°15'2 4.4
2017-Aug-18 13:27N 46°09' W 001°15'2 5.3
2017-Aug-18 13:00N 46°09' W 001°11'1 0.7
2017-Aug-18 11:57N 46°09' W 001°10'0 0.0
2017-Aug-18 11:24N 46°09' W 001°10'0 0.0
2017-Aug-18 10:57N 46°09' W 001°10'0 0.0
2017-Aug-18 10:30N 46°09' W 001°10'0 0.0
2017-Aug-18 10:00N 46°09' W 001°10'0 0.0
2017-Aug-18 09:30N 46°09' W 001°10'0 0.0
2017-Aug-18 08:57N 46°09' W 001°10'0 0.0
2017-Aug-18 08:27N 46°09' W 001°10'0 0.0
2017-Aug-18 08:00N 46°09' W 001°10'0 0.0
2017-Aug-18 07:30N 46°09' W 001°10'0 0.0
2017-Aug-18 06:57N 46°09' W 001°10'0 0.0
2017-Aug-18 06:30N 46°09' W 001°10'0 0.0
2017-Aug-18 05:57N 46°09' W 001°10'0 0.0
2017-Aug-18 05:27N 46°09' W 001°10'0 0.0
2017-Aug-18 04:57N 46°09' W 001°10'0 0.0
2017-Aug-18 04:27N 46°09' W 001°10'0 0.0
2017-Aug-18 04:00N 46°09' W 001°10'0 0.0
2017-Aug-18 03:03N 46°09' W 001°10'0 0.0
2017-Aug-18 02:57N 46°09' W 001°10'0 0.0
2017-Aug-18 02:27N 46°09' W 001°10'0 0.0
2017-Aug-18 02:00N 46°09' W 001°10'0 0.0
2017-Aug-18 01:15N 46°09' W 001°10'0 0.0
2017-Aug-18 00:21N 46°09' W 001°10'0 0.0
2017-Aug-17 23:51N 46°09' W 001°10'0 0.0
2017-Aug-17 23:27N 46°09' W 001°10'0 0.0
2017-Aug-17 22:57N 46°09' W 001°10'0 0.0
2017-Aug-17 22:18N 46°09' W 001°10'0 0.0
2017-Aug-17 21:57N 46°09' W 001°10'0 0.0
2017-Aug-17 21:15N 46°09' W 001°10'0 0.0
2017-Aug-17 20:54N 46°09' W 001°10'0 0.0
2017-Aug-17 20:21N 46°09' W 001°10'0 0.0
2017-Aug-17 19:57N 46°09' W 001°10'0 0.0
2017-Aug-17 18:45N 46°09' W 001°10'0 0.0
2017-Aug-17 18:27N 46°09' W 001°10'0 0.1
2017-Aug-17 18:00N 46°09' W 001°10'1 2.8
2017-Aug-17 17:29N 46°08' W 001°12'2 3.7
2017-Aug-17 16:59N 46°09' W 001°14'23 4.9
2017-Aug-17 12:20N 46°24' W 001°39'2 6.1
2017-Aug-17 12:00N 46°25' W 001°41'3 6.3
2017-Aug-17 11:30N 46°27' W 001°45'3 5.3
2017-Aug-17 11:00N 46°29' W 001°47'1 1.1
2017-Aug-17 10:29N 46°30' W 001°48'0 0.0
2017-Aug-17 09:59N 46°30' W 001°48'0 0.0
2017-Aug-17 09:29N 46°30' W 001°48'0 0.0
2017-Aug-17 08:59N 46°30' W 001°48'0 0.0
2017-Aug-17 08:29N 46°30' W 001°48'0 0.0
2017-Aug-17 07:59N 46°30' W 001°48'0 0.0
2017-Aug-17 07:29N 46°30' W 001°48'0 0.0
2017-Aug-17 06:59N 46°30' W 001°48'0 0.0
2017-Aug-17 06:29N 46°30' W 001°48'0 0.0
2017-Aug-17 05:59N 46°30' W 001°48'0 0.0
2017-Aug-17 05:29N 46°30' W 001°48'0 0.0
2017-Aug-17 04:59N 46°30' W 001°48'0 0.0
2017-Aug-17 04:29N 46°30' W 001°48'0 0.0
2017-Aug-17 03:59N 46°30' W 001°48'0 0.0
2017-Aug-17 03:29N 46°30' W 001°48'0 0.0
2017-Aug-17 02:59N 46°30' W 001°48'0 0.0
2017-Aug-17 02:29N 46°30' W 001°48'0 0.0
2017-Aug-17 01:59N 46°30' W 001°48'0 0.0
2017-Aug-17 01:29N 46°30' W 001°48'0 0.0
2017-Aug-17 00:59N 46°30' W 001°48'0 0.0
2017-Aug-17 00:29N 46°30' W 001°48'0 0.0
2017-Aug-16 23:59N 46°30' W 001°48'0 0.0
2017-Aug-16 23:29N 46°30' W 001°48'0 0.0
2017-Aug-16 22:59N 46°30' W 001°48'0 0.0
2017-Aug-16 22:29N 46°30' W 001°48'0 0.0
2017-Aug-16 21:59N 46°30' W 001°48'0 0.0
2017-Aug-16 21:29N 46°30' W 001°48'0 0.0
2017-Aug-16 20:59N 46°30' W 001°48'0 0.0
2017-Aug-16 20:29N 46°30' W 001°48'0 0.0
2017-Aug-16 19:59N 46°30' W 001°48'0 0.0
2017-Aug-16 19:28N 46°30' W 001°48'0 0.0
2017-Aug-16 18:58N 46°30' W 001°48'0 0.0
2017-Aug-16 18:28N 46°30' W 001°48'0 0.0
2017-Aug-16 17:58N 46°30' W 001°48'0 0.0
2017-Aug-16 17:28N 46°30' W 001°48'1 2.2
2017-Aug-16 17:00N 46°29' W 001°48'2 3.6
2017-Aug-16 16:30N 46°29' W 001°51'2 4.6
2017-Aug-16 16:00N 46°31' W 001°53'2 3.3
2017-Aug-16 15:30N 46°32' W 001°55'2 3.7
2017-Aug-16 15:00N 46°33' W 001°57'  
Track history (hours):
 
Tides and Currents Weather Stations Pressure Air Temp Water Temp Dewpoint Dewpoint Depression Visibility Wind Speed Wind Dir Waves Ship Positions

Somajesi

Last reported at 2017-Aug-19 18:59 UTC. Time now 2017-Sep-22 10:16 UTC.
Position N 46°39' W 001°57'.
Warning: this ship's position is 33 days out of date.

Length 13 m.

Type: Sailing vessel. MMSI: 227033040.

Date/timePositionNaut miles runAvg speedWind from/ knotsBaromVisibWave heightAir tempDewpointWater temp
2017-Aug-19 18:59N 46°39' W 001°57'3 5.1
2017-Aug-19 18:29N 46°37' W 001°57'2 3.8
2017-Aug-19 17:56N 46°34' W 001°57'2 3.8
2017-Aug-19 17:30N 46°35' W 001°55'3 4.9
2017-Aug-19 17:00N 46°32' W 001°55'3 5.3
2017-Aug-19 16:30N 46°30' W 001°54'2 4.5
2017-Aug-19 16:00N 46°28' W 001°52'3 6.0
2017-Aug-19 15:30N 46°26' W 001°49'3 6.0
2017-Aug-19 15:00N 46°25' W 001°45'25 1.0
2017-Aug-18 13:55N 46°11' W 001°15'2 4.4
2017-Aug-18 13:27N 46°09' W 001°15'2 5.3
2017-Aug-18 13:00N 46°09' W 001°11'1 0.7
2017-Aug-18 11:57N 46°09' W 001°10'0 0.0
2017-Aug-18 11:24N 46°09' W 001°10'0 0.0
2017-Aug-18 10:57N 46°09' W 001°10'0 0.0
2017-Aug-18 10:30N 46°09' W 001°10'0 0.0
2017-Aug-18 10:00N 46°09' W 001°10'0 0.0
2017-Aug-18 09:30N 46°09' W 001°10'0 0.0
2017-Aug-18 08:57N 46°09' W 001°10'0 0.0
2017-Aug-18 08:27N 46°09' W 001°10'0 0.0
2017-Aug-18 08:00N 46°09' W 001°10'0 0.0
2017-Aug-18 07:30N 46°09' W 001°10'0 0.0
2017-Aug-18 06:57N 46°09' W 001°10'0 0.0
2017-Aug-18 06:30N 46°09' W 001°10'0 0.0
2017-Aug-18 05:57N 46°09' W 001°10'0 0.0
2017-Aug-18 05:27N 46°09' W 001°10'0 0.0
2017-Aug-18 04:57N 46°09' W 001°10'0 0.0
2017-Aug-18 04:27N 46°09' W 001°10'0 0.0
2017-Aug-18 04:00N 46°09' W 001°10'0 0.0
2017-Aug-18 03:03N 46°09' W 001°10'0 0.0
2017-Aug-18 02:57N 46°09' W 001°10'0 0.0
2017-Aug-18 02:27N 46°09' W 001°10'0 0.0
2017-Aug-18 02:00N 46°09' W 001°10'0 0.0
2017-Aug-18 01:15N 46°09' W 001°10'0 0.0
2017-Aug-18 00:21N 46°09' W 001°10'0 0.0
2017-Aug-17 23:51N 46°09' W 001°10'0 0.0
2017-Aug-17 23:27N 46°09' W 001°10'0 0.0
2017-Aug-17 22:57N 46°09' W 001°10'0 0.0
2017-Aug-17 22:18N 46°09' W 001°10'0 0.0
2017-Aug-17 21:57N 46°09' W 001°10'0 0.0
2017-Aug-17 21:15N 46°09' W 001°10'0 0.0
2017-Aug-17 20:54N 46°09' W 001°10'0 0.0
2017-Aug-17 20:21N 46°09' W 001°10'0 0.0
2017-Aug-17 19:57N 46°09' W 001°10'0 0.0
2017-Aug-17 18:45N 46°09' W 001°10'0 0.0
2017-Aug-17 18:27N 46°09' W 001°10'0 0.1
2017-Aug-17 18:00N 46°09' W 001°10'1 2.8
2017-Aug-17 17:29N 46°08' W 001°12'2 3.7
2017-Aug-17 16:59N 46°09' W 001°14'23 4.9
2017-Aug-17 12:20N 46°24' W 001°39'2 6.1
2017-Aug-17 12:00N 46°25' W 001°41'3 6.3
2017-Aug-17 11:30N 46°27' W 001°45'3 5.3
2017-Aug-17 11:00N 46°29' W 001°47'1 1.1
2017-Aug-17 10:29N 46°30' W 001°48'0 0.0
2017-Aug-17 09:59N 46°30' W 001°48'0 0.0
2017-Aug-17 09:29N 46°30' W 001°48'0 0.0
2017-Aug-17 08:59N 46°30' W 001°48'0 0.0
2017-Aug-17 08:29N 46°30' W 001°48'0 0.0
2017-Aug-17 07:59N 46°30' W 001°48'0 0.0
2017-Aug-17 07:29N 46°30' W 001°48'0 0.0
2017-Aug-17 06:59N 46°30' W 001°48'0 0.0
2017-Aug-17 06:29N 46°30' W 001°48'0 0.0
2017-Aug-17 05:59N 46°30' W 001°48'0 0.0
2017-Aug-17 05:29N 46°30' W 001°48'0 0.0
2017-Aug-17 04:59N 46°30' W 001°48'0 0.0
2017-Aug-17 04:29N 46°30' W 001°48'0 0.0
2017-Aug-17 03:59N 46°30' W 001°48'0 0.0
2017-Aug-17 03:29N 46°30' W 001°48'0 0.0
2017-Aug-17 02:59N 46°30' W 001°48'0 0.0
2017-Aug-17 02:29N 46°30' W 001°48'0 0.0
2017-Aug-17 01:59N 46°30' W 001°48'0 0.0
2017-Aug-17 01:29N 46°30' W 001°48'0 0.0
2017-Aug-17 00:59N 46°30' W 001°48'0 0.0
2017-Aug-17 00:29N 46°30' W 001°48'0 0.0
2017-Aug-16 23:59N 46°30' W 001°48'0 0.0
2017-Aug-16 23:29N 46°30' W 001°48'0 0.0
2017-Aug-16 22:59N 46°30' W 001°48'0 0.0
2017-Aug-16 22:29N 46°30' W 001°48'0 0.0
2017-Aug-16 21:59N 46°30' W 001°48'0 0.0
2017-Aug-16 21:29N 46°30' W 001°48'0 0.0
2017-Aug-16 20:59N 46°30' W 001°48'0 0.0
2017-Aug-16 20:29N 46°30' W 001°48'0 0.0
2017-Aug-16 19:59N 46°30' W 001°48'0 0.0
2017-Aug-16 19:28N 46°30' W 001°48'0 0.0
2017-Aug-16 18:58N 46°30' W 001°48'0 0.0
2017-Aug-16 18:28N 46°30' W 001°48'0 0.0
2017-Aug-16 17:58N 46°30' W 001°48'0 0.0
2017-Aug-16 17:28N 46°30' W 001°48'1 2.2
2017-Aug-16 17:00N 46°29' W 001°48'2 3.6
2017-Aug-16 16:30N 46°29' W 001°51'2 4.6
2017-Aug-16 16:00N 46°31' W 001°53'2 3.3
2017-Aug-16 15:30N 46°32' W 001°55'2 3.7
2017-Aug-16 15:00N 46°33' W 001°57'  

Dump ship's entire track history